Main page
METAR-TAF:

METAR-TAF

Airports :

Bearce Airport

Mount Ida, Arkansas, United States

latitude: 34-33N, longitude: 093-35W, elevation: 702 ft

Current weather observation

The report was made 1 hour and 20 minutes ago, at 18:53 UTC
Wind 6 mph from variable directions
Temperature 91°F
Humidity 39%
Pressure 29.94 in. Hg
Visibility: 10 miles
Clear sky

METAR: KMWT 151853Z AUTO VRB05KT 10SM CLR 33/17 A2994 RMK AO2 SLP122 T03330172

Time: 15:13 (20:13 UTC)


TAF: missing

Weather observations and forecasts of more than 4000 airports (METAR and TAF reports).

The available stations are represented by yellow and red dots on the map.

Hover mouse over dot to see the name of the station.

Then click to see weather observations and forecasts.

To change the map : click on the green buttons with a black cross to zoom in, on the green button with a dash to zoom out, or on the green arrows for adjacent maps.


METAR-TAF: